createdAt,value
2022-07-26T00:00:23.214Z,91.83
2022-07-26T00:15:23.212Z,95.83
2022-07-26T00:30:23.319Z,95.60
2022-07-26T00:45:23.143Z,94.90
2022-07-26T01:00:23.385Z,97.73
2022-07-26T01:15:23.277Z,88.67
2022-07-26T01:30:23.380Z,86.15
2022-07-26T01:45:23.417Z,88.15
2022-07-26T02:00:23.638Z,95.00
2022-07-26T02:15:23.336Z,92.03
2022-07-26T02:30:23.386Z,92.40
2022-07-26T02:45:23.443Z,96.37
2022-07-26T03:00:23.577Z,98.97
2022-07-26T03:15:23.767Z,100.00
2022-07-26T03:30:24.831Z,100.00
2022-07-26T03:45:23.441Z,100.00
2022-07-26T04:00:23.519Z,100.00
2022-07-26T04:15:23.619Z,100.00
2022-07-26T04:30:23.513Z,100.00
2022-07-26T04:45:23.606Z,100.00
2022-07-26T05:00:29.575Z,100.00
2022-07-26T05:15:23.545Z,100.00
2022-07-26T05:30:23.549Z,100.00
2022-07-26T05:45:23.551Z,100.00
2022-07-26T06:00:23.893Z,100.00
2022-07-26T06:15:23.851Z,100.00
2022-07-26T06:30:23.890Z,100.00
2022-07-26T06:45:23.806Z,100.00
2022-07-26T07:00:23.870Z,100.00
2022-07-26T07:15:23.721Z,95.87
2022-07-26T07:30:23.941Z,90.90
2022-07-26T07:45:23.981Z,69.07
2022-07-26T08:00:27.176Z,54.60
2022-07-26T08:15:24.017Z,48.80
2022-07-26T08:30:23.954Z,46.20
2022-07-26T08:45:23.993Z,47.03
2022-07-26T09:00:26.537Z,47.67
2022-07-26T09:15:24.114Z,46.70
2022-07-26T09:30:33.264Z,47.90
2022-07-26T09:45:33.284Z,49.63
2022-07-26T10:00:33.125Z,47.50
2022-07-26T10:15:23.076Z,45.43
2022-07-26T10:30:23.055Z,43.03
2022-07-26T10:45:23.060Z,43.37
2022-07-26T11:00:23.330Z,42.73
2022-07-26T11:15:23.197Z,42.90
2022-07-26T11:30:23.178Z,42.07
2022-07-26T11:45:23.369Z,41.10
2022-07-26T12:00:23.604Z,38.70
2022-07-26T12:15:23.393Z,39.80
2022-07-26T12:30:23.402Z,38.57
2022-07-26T12:45:23.492Z,37.93
2022-07-26T13:00:23.746Z,39.33
2022-07-26T13:15:24.061Z,39.27
2022-07-26T13:30:23.245Z,37.70
2022-07-26T13:45:23.539Z,36.13
2022-07-26T14:00:23.673Z,37.20
2022-07-26T14:15:23.874Z,36.85
2022-07-26T14:30:23.524Z,38.33
2022-07-26T14:45:23.549Z,37.90
2022-07-26T15:00:23.834Z,37.07
2022-07-26T15:15:23.556Z,38.53
2022-07-26T15:30:23.932Z,37.77
2022-07-26T15:45:25.060Z,35.90
2022-07-26T16:00:24.730Z,35.80
2022-07-26T16:15:24.341Z,35.17
2022-07-26T16:30:23.741Z,34.75
2022-07-26T16:45:23.919Z,34.17
2022-07-26T17:00:24.082Z,35.17
2022-07-26T17:15:23.715Z,36.85
2022-07-26T17:30:23.936Z,37.63
2022-07-26T17:45:23.852Z,38.83
2022-07-26T18:00:28.621Z,41.33
2022-07-26T18:15:23.930Z,45.77
2022-07-26T18:30:24.379Z,50.63
2022-07-26T18:45:23.877Z,55.37
2022-07-26T19:00:25.557Z,58.60
2022-07-26T19:15:24.005Z,62.10
2022-07-26T19:30:24.014Z,61.70
2022-07-26T19:45:23.938Z,64.03
2022-07-26T20:00:24.218Z,66.03
2022-07-26T20:15:24.220Z,68.80
2022-07-26T20:30:24.112Z,68.83
2022-07-26T20:45:24.040Z,70.70
2022-07-26T21:00:33.200Z,76.27
2022-07-26T21:15:23.189Z,76.80
2022-07-26T21:30:23.302Z,78.97
2022-07-26T21:45:23.171Z,82.00
2022-07-26T22:15:23.492Z,87.80
2022-07-26T22:30:23.411Z,87.10
2022-07-26T22:45:23.351Z,93.33
2022-07-26T23:00:23.669Z,96.67
2022-07-26T23:15:23.315Z,100.00
2022-07-26T23:30:23.286Z,100.00
2022-07-26T23:45:23.344Z,100.00
